createdAt,value
2019-03-31T00:01:37.674Z,99.90
2019-03-31T00:04:09.422Z,99.90
2019-03-31T00:06:41.197Z,99.90
2019-03-31T00:09:12.926Z,99.90
2019-03-31T00:11:44.701Z,99.90
2019-03-31T00:14:16.457Z,99.90
2019-03-31T00:16:48.237Z,99.90
2019-03-31T00:19:19.960Z,99.90
2019-03-31T00:21:51.741Z,99.90
2019-03-31T00:24:23.478Z,99.90
2019-03-31T00:26:55.394Z,99.90
2019-03-31T00:29:27.099Z,99.90
2019-03-31T00:31:58.998Z,99.90
2019-03-31T00:37:01.145Z,99.90
2019-03-31T00:39:33.351Z,99.90
2019-03-31T00:42:05.166Z,99.90
2019-03-31T00:44:36.862Z,99.90
2019-03-31T00:47:08.582Z,99.90
2019-03-31T00:49:40.266Z,99.90
2019-03-31T00:52:12.018Z,99.90
2019-03-31T00:54:43.803Z,99.90
2019-03-31T00:57:15.522Z,99.90
2019-03-31T00:59:47.305Z,99.90
2019-03-31T01:05:15.034Z,99.90
2019-03-31T01:07:47.197Z,99.90
2019-03-31T01:10:19.046Z,99.90
2019-03-31T01:12:50.860Z,99.90
2019-03-31T01:15:25.962Z,99.90
2019-03-31T01:17:58.758Z,99.90
2019-03-31T01:20:30.902Z,99.90
2019-03-31T01:23:02.811Z,99.90
2019-03-31T01:25:34.606Z,99.90
2019-03-31T01:28:06.342Z,99.90
2019-03-31T01:30:38.350Z,99.90
2019-03-31T01:35:40.890Z,99.90
2019-03-31T01:38:12.682Z,99.90
2019-03-31T01:40:44.517Z,99.90
2019-03-31T01:43:16.716Z,99.90
2019-03-31T01:45:48.274Z,99.90
2019-03-31T01:48:19.950Z,99.90
2019-03-31T01:50:51.666Z,99.90
2019-03-31T01:53:23.415Z,99.90
2019-03-31T01:55:55.170Z,99.90
2019-03-31T01:58:26.925Z,99.90
2019-03-31T02:01:00.803Z,99.90
2019-03-31T02:03:32.647Z,99.90
2019-03-31T02:06:04.360Z,99.90
2019-03-31T02:08:36.137Z,99.90
2019-03-31T02:11:08.801Z,99.90
2019-03-31T02:13:40.478Z,99.90
2019-03-31T02:16:12.217Z,99.90
2019-03-31T02:18:43.987Z,99.90
2019-03-31T02:21:15.751Z,99.90
2019-03-31T02:23:47.484Z,99.90
2019-03-31T02:26:19.283Z,99.90
2019-03-31T02:28:51.009Z,99.90
2019-03-31T02:31:22.757Z,99.90
2019-03-31T02:33:54.520Z,99.90
2019-03-31T02:36:26.312Z,99.90
2019-03-31T02:38:58.050Z,99.90
2019-03-31T02:41:29.922Z,99.90
2019-03-31T02:44:01.695Z,99.90
2019-03-31T02:46:33.539Z,99.90
2019-03-31T02:49:05.303Z,99.90
2019-03-31T02:51:37.478Z,99.90
2019-03-31T02:54:09.208Z,99.90
2019-03-31T02:56:42.023Z,99.90
2019-03-31T02:59:15.920Z,99.90
2019-03-31T03:01:48.604Z,99.90
2019-03-31T03:04:20.350Z,99.90
2019-03-31T03:06:54.148Z,99.90
2019-03-31T03:09:29.530Z,99.90
2019-03-31T03:12:03.588Z,99.90
2019-03-31T03:17:07.736Z,99.90
2019-03-31T03:19:39.490Z,99.90
2019-03-31T03:24:42.037Z,99.90
2019-03-31T03:27:14.113Z,99.90
2019-03-31T03:29:45.880Z,99.90
2019-03-31T03:32:17.879Z,99.90
2019-03-31T03:34:49.692Z,99.90
2019-03-31T03:37:21.580Z,99.90
2019-03-31T03:39:53.296Z,99.90
2019-03-31T03:42:25.121Z,99.90
2019-03-31T03:44:56.950Z,99.90
2019-03-31T03:47:28.642Z,99.90
2019-03-31T03:50:00.672Z,99.90
2019-03-31T03:52:32.615Z,99.90
2019-03-31T03:55:04.324Z,99.90
2019-03-31T04:00:07.249Z,99.90
2019-03-31T04:02:39.023Z,99.90
2019-03-31T04:05:10.759Z,99.90
2019-03-31T04:07:42.531Z,99.90
2019-03-31T04:10:57.631Z,99.90
2019-03-31T04:13:29.343Z,99.90
2019-03-31T04:16:01.139Z,99.90
2019-03-31T04:18:32.778Z,99.90
2019-03-31T04:21:04.542Z,99.90
2019-03-31T04:26:06.923Z,99.90
2019-03-31T04:28:38.665Z,99.90
2019-03-31T04:31:10.467Z,99.90
2019-03-31T04:33:51.392Z,99.90
2019-03-31T04:36:15.786Z,99.90
2019-03-31T04:38:47.738Z,99.90
2019-03-31T04:41:19.503Z,99.90
2019-03-31T04:43:51.205Z,99.90
2019-03-31T04:46:22.917Z,99.90
2019-03-31T04:48:55.126Z,99.90
2019-03-31T04:51:26.842Z,99.90
2019-03-31T04:53:58.663Z,99.90
2019-03-31T04:56:30.362Z,99.90
2019-03-31T04:59:02.027Z,99.90
2019-03-31T05:01:33.857Z,99.90
2019-03-31T05:04:05.602Z,99.90
2019-03-31T05:09:08.245Z,99.90
2019-03-31T05:11:39.999Z,99.90
2019-03-31T05:14:11.758Z,99.90
2019-03-31T05:16:43.534Z,99.90
2019-03-31T05:19:15.277Z,99.90
2019-03-31T05:21:47.086Z,99.90
2019-03-31T05:24:30.702Z,99.90
2019-03-31T05:27:02.470Z,99.90
2019-03-31T05:29:34.210Z,99.90
2019-03-31T05:32:05.998Z,99.90
2019-03-31T05:34:37.714Z,99.90
2019-03-31T05:37:10.655Z,99.90
2019-03-31T05:39:42.466Z,99.90
2019-03-31T05:44:53.303Z,99.90
2019-03-31T05:47:25.359Z,99.90
2019-03-31T05:49:56.850Z,99.90
2019-03-31T05:52:30.272Z,99.90
2019-03-31T05:57:32.166Z,99.90
2019-03-31T06:02:34.150Z,99.90
2019-03-31T06:05:05.854Z,99.90
2019-03-31T06:07:37.356Z,99.90
2019-03-31T06:10:09.084Z,99.90
2019-03-31T06:12:40.579Z,99.90
2019-03-31T06:15:12.102Z,99.90
2019-03-31T06:17:45.859Z,99.90
2019-03-31T06:20:24.668Z,99.90
2019-03-31T06:22:56.324Z,99.90
2019-03-31T06:25:27.828Z,99.90
2019-03-31T06:27:59.362Z,99.90
2019-03-31T06:30:30.947Z,99.90
2019-03-31T06:33:13.324Z,99.90
2019-03-31T06:35:44.835Z,99.90
2019-03-31T06:38:16.374Z,99.90
2019-03-31T06:40:50.890Z,99.90
2019-03-31T06:43:22.522Z,99.90
2019-03-31T06:45:53.961Z,99.90
2019-03-31T06:48:25.503Z,99.90
2019-03-31T06:50:57.403Z,99.90
2019-03-31T06:53:29.010Z,99.90
2019-03-31T06:56:00.514Z,99.90
2019-03-31T06:58:32.101Z,99.90
2019-03-31T07:01:03.615Z,99.90
2019-03-31T07:03:35.134Z,99.90
2019-03-31T07:06:06.654Z,99.90
2019-03-31T07:08:38.090Z,99.90
2019-03-31T07:11:09.613Z,99.90
2019-03-31T07:16:12.134Z,99.90
2019-03-31T07:18:43.700Z,99.90
2019-03-31T07:21:15.202Z,99.90
2019-03-31T07:23:46.763Z,99.90
2019-03-31T07:26:18.690Z,99.90
2019-03-31T07:28:50.209Z,99.90
2019-03-31T07:31:21.914Z,99.90
2019-03-31T07:33:53.645Z,99.90
2019-03-31T07:36:25.739Z,99.90
2019-03-31T07:38:58.604Z,99.90
2019-03-31T07:44:01.472Z,90.80
2019-03-31T07:46:32.998Z,80.00
2019-03-31T07:49:04.526Z,72.00
2019-03-31T07:51:37.626Z,68.90
2019-03-31T07:54:09.222Z,65.20
2019-03-31T07:56:40.727Z,61.70
2019-03-31T08:01:43.153Z,57.50
2019-03-31T08:06:46.226Z,55.90
2019-03-31T08:09:17.770Z,54.10
2019-03-31T08:11:49.514Z,51.40
2019-03-31T08:16:52.631Z,52.30
2019-03-31T08:19:24.222Z,51.80
2019-03-31T08:24:27.785Z,52.20
2019-03-31T08:26:59.914Z,50.70
2019-03-31T08:29:32.010Z,49.80
2019-03-31T08:32:04.138Z,47.20
2019-03-31T08:34:36.230Z,46.20
2019-03-31T08:39:39.760Z,44.80
2019-03-31T08:42:11.868Z,45.40
2019-03-31T08:49:45.825Z,43.70
2019-03-31T08:52:17.942Z,44.00
2019-03-31T08:54:50.017Z,44.10
2019-03-31T08:57:22.118Z,41.80
2019-03-31T08:59:54.222Z,42.30
2019-03-31T09:02:35.955Z,42.70
2019-03-31T09:05:11.269Z,43.90
2019-03-31T09:07:43.422Z,41.40
2019-03-31T09:10:15.887Z,40.30
2019-03-31T09:12:48.703Z,41.00
2019-03-31T09:15:22.144Z,42.30
2019-03-31T09:17:54.583Z,41.70
2019-03-31T09:20:26.702Z,42.00
2019-03-31T09:22:58.810Z,39.50
2019-03-31T09:25:30.903Z,42.10
2019-03-31T09:28:03.082Z,44.90
2019-03-31T09:30:35.174Z,42.60
2019-03-31T09:33:07.302Z,43.20
2019-03-31T09:35:39.397Z,41.50
2019-03-31T09:38:11.487Z,40.80
2019-03-31T09:40:43.582Z,42.50
2019-03-31T09:43:16.179Z,41.60
2019-03-31T09:45:48.261Z,40.50
2019-03-31T09:48:20.390Z,39.10
2019-03-31T09:50:52.477Z,38.80
2019-03-31T09:53:24.577Z,38.60
2019-03-31T09:55:56.737Z,37.40
2019-03-31T09:58:28.930Z,38.60
2019-03-31T10:01:01.220Z,39.70
2019-03-31T10:03:33.394Z,39.30
2019-03-31T10:06:10.886Z,39.00
2019-03-31T10:08:39.166Z,38.60
2019-03-31T10:11:11.254Z,40.60
2019-03-31T10:13:43.438Z,40.60
2019-03-31T10:16:15.539Z,39.40
2019-03-31T10:18:47.865Z,44.20
2019-03-31T10:21:20.133Z,47.60
2019-03-31T10:23:52.354Z,52.10
2019-03-31T10:26:31.678Z,53.40
2019-03-31T10:28:57.794Z,51.00
2019-03-31T10:31:29.878Z,53.70
2019-03-31T10:34:01.651Z,55.70
2019-03-31T10:36:43.891Z,57.10
2019-03-31T10:41:59.601Z,54.90
2019-03-31T10:53:41.798Z,45.00
2019-03-31T11:19:28.587Z,52.30
2019-03-31T11:24:56.406Z,42.50
2019-03-31T11:27:28.006Z,44.70
2019-03-31T11:29:59.517Z,46.90
2019-03-31T11:35:02.614Z,51.00
2019-03-31T11:37:35.066Z,51.90
2019-03-31T11:40:07.762Z,47.40
2019-03-31T11:42:39.865Z,45.70
2019-03-31T11:45:13.458Z,48.40
2019-03-31T11:47:44.885Z,48.80
2019-03-31T11:50:17.094Z,42.80
2019-03-31T11:52:48.674Z,45.70
2019-03-31T11:55:20.174Z,48.60
2019-03-31T11:57:51.785Z,51.40
2019-03-31T12:00:23.723Z,54.10
2019-03-31T12:02:55.246Z,54.00
2019-03-31T12:05:26.759Z,54.60
2019-03-31T12:07:58.322Z,56.00
2019-03-31T12:10:29.859Z,57.80
2019-03-31T12:13:01.353Z,59.30
2019-03-31T12:15:32.866Z,59.00
2019-03-31T12:18:04.369Z,48.30
2019-03-31T12:20:35.967Z,48.50
2019-03-31T12:23:07.481Z,47.10
2019-03-31T12:25:39.010Z,52.30
2019-03-31T12:28:10.523Z,55.30
2019-03-31T12:30:42.028Z,56.70
2019-03-31T12:33:13.530Z,59.50
2019-03-31T12:35:45.046Z,60.50
2019-03-31T12:38:16.539Z,60.70
2019-03-31T12:40:48.070Z,62.30
2019-03-31T12:43:19.490Z,64.00
2019-03-31T12:45:51.034Z,66.50
2019-03-31T12:48:22.527Z,68.30
2019-03-31T12:53:24.370Z,73.40
2019-03-31T12:56:00.286Z,75.40
2019-03-31T13:00:59.759Z,79.40
2019-03-31T13:03:31.274Z,81.30
2019-03-31T13:06:02.710Z,79.90
2019-03-31T13:08:34.237Z,82.70
2019-03-31T13:11:05.733Z,81.00
2019-03-31T13:13:37.281Z,80.80
2019-03-31T13:16:08.782Z,80.00
2019-03-31T13:18:40.314Z,78.90
2019-03-31T13:21:11.813Z,70.90
2019-03-31T13:23:43.246Z,51.80
2019-03-31T13:26:14.781Z,48.70
2019-03-31T13:28:46.294Z,54.00
2019-03-31T13:31:17.910Z,59.20
2019-03-31T13:33:49.369Z,63.60
2019-03-31T13:36:20.875Z,67.80
2019-03-31T13:38:52.382Z,68.80
2019-03-31T13:43:54.229Z,61.90
2019-03-31T13:46:25.660Z,57.90
2019-03-31T13:48:57.206Z,43.10
2019-03-31T13:51:28.638Z,43.60
2019-03-31T13:54:00.166Z,44.40
2019-03-31T13:56:32.480Z,38.50
2019-03-31T14:01:36.084Z,34.70
2019-03-31T14:04:08.162Z,30.60
2019-03-31T14:06:40.231Z,32.50
2019-03-31T14:09:12.418Z,37.20
2019-03-31T14:11:43.906Z,36.80
2019-03-31T14:14:15.630Z,34.00
2019-03-31T14:16:47.059Z,32.70
2019-03-31T14:19:20.249Z,30.80
2019-03-31T14:21:52.320Z,30.00
2019-03-31T14:26:57.042Z,34.30
2019-03-31T14:32:00.087Z,29.90
2019-03-31T14:34:32.173Z,31.60
2019-03-31T14:37:04.201Z,29.90
2019-03-31T14:39:36.259Z,34.90
2019-03-31T14:42:07.790Z,40.90
2019-03-31T14:44:39.294Z,43.00
2019-03-31T14:47:10.750Z,43.30
2019-03-31T14:49:42.823Z,40.40
2019-03-31T14:52:26.634Z,38.60
2019-03-31T14:54:47.482Z,36.40
2019-03-31T14:57:19.547Z,36.60
2019-03-31T14:59:51.043Z,42.40
2019-03-31T15:02:22.545Z,45.60
2019-03-31T15:04:53.998Z,49.20
2019-03-31T15:07:25.503Z,50.60
2019-03-31T15:12:27.373Z,53.40
2019-03-31T15:14:58.826Z,51.60
2019-03-31T15:17:30.626Z,42.20
2019-03-31T15:20:02.190Z,35.80
2019-03-31T15:22:33.756Z,36.80
2019-03-31T15:25:05.321Z,39.40
2019-03-31T15:27:36.838Z,36.50
2019-03-31T15:30:08.527Z,36.60
2019-03-31T15:32:40.058Z,38.40
2019-03-31T15:35:11.658Z,38.40
2019-03-31T15:37:43.189Z,35.00
2019-03-31T15:40:14.618Z,38.40
2019-03-31T15:45:16.521Z,35.30
2019-03-31T15:47:48.086Z,34.10
2019-03-31T15:50:20.322Z,36.80
2019-03-31T15:52:51.846Z,36.80
2019-03-31T15:55:24.420Z,35.10
2019-03-31T15:57:55.918Z,39.50
2019-03-31T16:00:28.478Z,43.20
2019-03-31T16:03:00.006Z,41.90
2019-03-31T16:05:31.555Z,41.80
2019-03-31T16:08:02.615Z,44.10
2019-03-31T16:10:33.842Z,46.80
2019-03-31T16:13:04.892Z,47.50
2019-03-31T16:15:35.838Z,49.40
2019-03-31T16:18:06.835Z,51.20
2019-03-31T16:23:07.966Z,53.00
2019-03-31T16:25:41.639Z,52.80
2019-03-31T16:28:12.602Z,53.90
2019-03-31T16:30:43.674Z,55.20
2019-03-31T16:35:45.752Z,55.60
2019-03-31T16:38:16.733Z,56.30
2019-03-31T16:40:47.686Z,56.50
2019-03-31T16:43:18.669Z,56.50
2019-03-31T16:45:49.566Z,55.90
2019-03-31T16:48:20.554Z,56.80
2019-03-31T16:50:51.575Z,56.80
2019-03-31T16:53:22.554Z,56.20
2019-03-31T16:55:54.567Z,55.00
2019-03-31T16:58:25.522Z,54.00
2019-03-31T17:00:56.405Z,52.60
2019-03-31T17:14:46.858Z,52.90
2019-03-31T17:36:51.650Z,56.70
2019-03-31T17:42:56.835Z,57.40
2019-03-31T17:45:28.111Z,58.10
2019-03-31T17:47:59.166Z,58.50
2019-03-31T17:50:30.127Z,59.50
2019-03-31T17:53:03.843Z,61.10
2019-03-31T17:55:34.190Z,61.00
2019-03-31T17:58:05.865Z,61.20
2019-03-31T18:00:37.135Z,58.30
2019-03-31T18:03:08.266Z,57.80
2019-03-31T18:05:39.178Z,57.20
2019-03-31T18:08:10.514Z,55.90
2019-03-31T18:10:41.561Z,55.50
2019-03-31T18:13:12.611Z,54.90
2019-03-31T18:15:43.716Z,55.30
2019-03-31T18:18:14.876Z,54.80
2019-03-31T18:20:45.957Z,55.70
2019-03-31T18:23:17.111Z,56.10
2019-03-31T18:25:48.148Z,56.50
2019-03-31T18:28:19.198Z,56.50
2019-03-31T18:31:19.625Z,57.90
2019-03-31T18:33:50.747Z,59.00
2019-03-31T18:36:35.531Z,59.90
2019-03-31T18:38:54.684Z,60.60
2019-03-31T18:41:25.662Z,61.20
2019-03-31T18:43:56.724Z,61.30
2019-03-31T18:46:27.774Z,61.80
2019-03-31T18:48:58.979Z,62.60
2019-03-31T18:54:19.419Z,64.00
2019-03-31T18:57:22.349Z,65.00
2019-03-31T19:00:21.663Z,66.20
2019-03-31T19:03:10.586Z,67.10
2019-03-31T19:06:03.825Z,68.50
2019-03-31T19:08:43.670Z,69.80
2019-03-31T19:11:35.525Z,70.50
2019-03-31T19:14:26.312Z,72.60
2019-03-31T19:17:05.270Z,73.60
2019-03-31T19:19:58.192Z,77.30
2019-03-31T19:22:41.764Z,81.10
2019-03-31T19:25:30.546Z,82.50
2019-03-31T19:28:26.426Z,83.60
2019-03-31T19:31:17.637Z,87.60
2019-03-31T19:34:06.530Z,90.10
2019-03-31T19:36:54.565Z,91.10
2019-03-31T19:39:43.350Z,93.50
2019-03-31T19:42:36.645Z,94.60
2019-03-31T19:45:20.733Z,93.80
2019-03-31T19:48:06.901Z,93.40
2019-03-31T19:50:55.810Z,94.30
2019-03-31T19:53:55.118Z,94.70
2019-03-31T19:56:43.838Z,97.40
2019-03-31T19:59:22.235Z,99.90
2019-03-31T20:02:13.797Z,99.90
2019-03-31T20:05:22.115Z,99.90
2019-03-31T20:08:10.939Z,99.90
2019-03-31T20:11:00.794Z,99.90
2019-03-31T20:13:51.853Z,99.90
2019-03-31T20:19:23.490Z,99.90
2019-03-31T20:22:12.674Z,99.90
2019-03-31T20:25:02.243Z,99.90
2019-03-31T20:30:30.481Z,99.90
2019-03-31T20:33:20.374Z,99.90
2019-03-31T20:38:58.279Z,99.90
2019-03-31T20:44:20.922Z,99.90
2019-03-31T20:46:51.883Z,99.90
2019-03-31T20:49:22.881Z,99.90
2019-03-31T20:54:25.554Z,99.90
2019-03-31T20:56:56.583Z,99.90
2019-03-31T20:59:27.716Z,99.90
2019-03-31T21:01:59.007Z,99.90
2019-03-31T21:04:29.961Z,99.90
2019-03-31T21:07:00.847Z,99.90
2019-03-31T21:09:44.419Z,99.90
2019-03-31T21:12:05.171Z,99.90
2019-03-31T21:14:36.250Z,99.90
2019-03-31T21:17:07.585Z,99.90
2019-03-31T21:19:38.978Z,99.90
2019-03-31T21:22:09.873Z,99.90
2019-03-31T21:24:40.757Z,99.90
2019-03-31T21:27:11.750Z,99.90
2019-03-31T21:29:43.071Z,99.90
2019-03-31T21:32:14.590Z,99.90
2019-03-31T21:34:45.473Z,99.90
2019-03-31T21:39:46.510Z,99.90
2019-03-31T21:42:17.938Z,99.90
2019-03-31T21:44:48.830Z,99.90
2019-03-31T21:47:19.858Z,99.90
2019-03-31T21:49:50.778Z,99.90
2019-03-31T21:52:21.646Z,99.90
2019-03-31T21:54:52.909Z,99.90
2019-03-31T21:57:24.244Z,99.90
2019-03-31T21:59:55.199Z,99.90
2019-03-31T22:04:56.323Z,99.90
2019-03-31T22:07:27.326Z,99.90
2019-03-31T22:09:58.238Z,99.90
2019-03-31T22:12:29.186Z,99.90
2019-03-31T22:15:00.394Z,99.90
2019-03-31T22:17:31.318Z,99.90
2019-03-31T22:20:03.280Z,99.90
2019-03-31T22:22:34.230Z,99.90
2019-03-31T22:25:05.666Z,99.90
2019-03-31T22:27:38.773Z,99.90
2019-03-31T22:30:09.902Z,99.90
2019-03-31T22:32:40.951Z,99.90
2019-03-31T22:37:42.182Z,99.90
2019-03-31T22:40:13.441Z,99.90
2019-03-31T22:42:55.526Z,99.90
2019-03-31T22:47:56.690Z,99.90
2019-03-31T22:50:27.674Z,99.90
2019-03-31T22:52:59.014Z,99.90
2019-03-31T22:55:29.978Z,99.90
2019-03-31T22:58:00.949Z,99.90
2019-03-31T23:00:32.042Z,99.90
2019-03-31T23:03:02.998Z,99.90
2019-03-31T23:05:33.984Z,99.90
2019-03-31T23:08:04.946Z,99.90
2019-03-31T23:10:36.650Z,99.90
2019-03-31T23:13:07.608Z,99.90
2019-03-31T23:15:38.583Z,99.90
2019-03-31T23:18:09.649Z,99.90
2019-03-31T23:20:40.617Z,99.90
2019-03-31T23:23:11.617Z,99.90
2019-03-31T23:25:42.575Z,99.90
2019-03-31T23:28:13.578Z,99.90
2019-03-31T23:30:44.583Z,99.90
2019-03-31T23:33:15.650Z,99.90
2019-03-31T23:35:46.623Z,99.90
2019-03-31T23:38:17.931Z,99.90
2019-03-31T23:40:48.913Z,99.90
2019-03-31T23:43:20.339Z,99.90
2019-03-31T23:45:51.307Z,99.90
2019-03-31T23:48:22.310Z,99.90
2019-03-31T23:50:53.260Z,99.90
2019-03-31T23:55:54.361Z,99.90
2019-03-31T23:58:25.334Z,99.90
